sensor_id;sensor_type;location;lat;lon;timestamp;P1;durP1;ratioP1;P2;durP2;ratioP2
56670;SDS011;42545;50.054;8.306;2022-08-24T00:00:37;2.22;;;1.75;;
56670;SDS011;42545;50.054;8.306;2022-08-24T00:03:06;2.78;;;2.08;;
56670;SDS011;42545;50.054;8.306;2022-08-24T00:05:35;2.35;;;1.90;;
56670;SDS011;42545;50.054;8.306;2022-08-24T00:08:02;3.25;;;2.08;;
56670;SDS011;42545;50.054;8.306;2022-08-24T00:10:29;2.40;;;2.05;;
56670;SDS011;42545;50.054;8.306;2022-08-24T00:12:56;2.33;;;1.85;;
56670;SDS011;42545;50.054;8.306;2022-08-24T00:15:23;3.42;;;2.30;;
56670;SDS011;42545;50.054;8.306;2022-08-24T00:17:50;3.35;;;1.90;;
56670;SDS011;42545;50.054;8.306;2022-08-24T00:20:17;2.58;;;2.25;;
56670;SDS011;42545;50.054;8.306;2022-08-24T00:22:44;2.45;;;2.00;;
56670;SDS011;42545;50.054;8.306;2022-08-24T00:25:11;3.05;;;2.10;;
56670;SDS011;42545;50.054;8.306;2022-08-24T00:27:39;2.47;;;2.03;;
56670;SDS011;42545;50.054;8.306;2022-08-24T00:30:08;2.47;;;1.92;;
56670;SDS011;42545;50.054;8.306;2022-08-24T00:32:37;1.80;;;1.40;;
56670;SDS011;42545;50.054;8.306;2022-08-24T00:35:05;3.15;;;1.90;;
56670;SDS011;42545;50.054;8.306;2022-08-24T00:37:35;3.97;;;2.08;;
56670;SDS011;42545;50.054;8.306;2022-08-24T00:40:03;3.35;;;1.98;;
56670;SDS011;42545;50.054;8.306;2022-08-24T00:42:31;2.08;;;1.65;;
56670;SDS011;42545;50.054;8.306;2022-08-24T00:44:57;2.28;;;1.52;;
56670;SDS011;42545;50.054;8.306;2022-08-24T00:47:27;2.30;;;1.50;;
56670;SDS011;42545;50.054;8.306;2022-08-24T00:49:57;1.50;;;1.35;;
56670;SDS011;42545;50.054;8.306;2022-08-24T00:52:28;3.03;;;1.52;;
56670;SDS011;42545;50.054;8.306;2022-08-24T00:55:00;2.38;;;1.50;;
56670;SDS011;42545;50.054;8.306;2022-08-24T00:57:31;1.70;;;1.60;;
56670;SDS011;42545;50.054;8.306;2022-08-24T01:00:05;2.15;;;1.40;;
56670;SDS011;42545;50.054;8.306;2022-08-24T01:02:36;1.58;;;1.33;;
56670;SDS011;42545;50.054;8.306;2022-08-24T01:05:08;1.42;;;1.20;;
56670;SDS011;42545;50.054;8.306;2022-08-24T01:07:36;1.58;;;1.20;;
56670;SDS011;42545;50.054;8.306;2022-08-24T01:10:07;1.30;;;1.20;;
56670;SDS011;42545;50.054;8.306;2022-08-24T01:12:37;1.60;;;1.40;;
56670;SDS011;42545;50.054;8.306;2022-08-24T01:15:05;1.27;;;1.17;;
56670;SDS011;42545;50.054;8.306;2022-08-24T01:17:34;1.17;;;1.02;;
56670;SDS011;42545;50.054;8.306;2022-08-24T01:20:20;1.52;;;1.13;;
56670;SDS011;42545;50.054;8.306;2022-08-24T01:22:52;1.48;;;1.38;;
56670;SDS011;42545;50.054;8.306;2022-08-24T01:25:26;1.30;;;1.20;;
56670;SDS011;42545;50.054;8.306;2022-08-24T01:27:55;1.77;;;1.38;;
56670;SDS011;42545;50.054;8.306;2022-08-24T01:30:26;1.20;;;1.10;;
56670;SDS011;42545;50.054;8.306;2022-08-24T01:32:54;1.30;;;1.20;;
56670;SDS011;42545;50.054;8.306;2022-08-24T01:35:23;1.40;;;1.17;;
56670;SDS011;42545;50.054;8.306;2022-08-24T01:37:50;1.40;;;1.30;;
56670;SDS011;42545;50.054;8.306;2022-08-24T01:40:20;1.90;;;1.30;;
56670;SDS011;42545;50.054;8.306;2022-08-24T01:42:52;1.38;;;1.27;;
56670;SDS011;42545;50.054;8.306;2022-08-24T01:45:19;0.85;;;0.85;;
56670;SDS011;42545;50.054;8.306;2022-08-24T01:47:46;1.05;;;0.98;;
56670;SDS011;42545;50.054;8.306;2022-08-24T01:50:13;1.50;;;1.00;;
56670;SDS011;42545;50.054;8.306;2022-08-24T01:52:40;1.00;;;0.93;;
56670;SDS011;42545;50.054;8.306;2022-08-24T01:55:09;1.48;;;1.30;;
56670;SDS011;42545;50.054;8.306;2022-08-24T01:57:36;1.88;;;1.40;;
56670;SDS011;42545;50.054;8.306;2022-08-24T02:00:07;1.60;;;1.40;;
56670;SDS011;42545;50.054;8.306;2022-08-24T02:02:38;1.92;;;1.40;;
56670;SDS011;42545;50.054;8.306;2022-08-24T02:05:06;3.55;;;1.67;;
56670;SDS011;42545;50.054;8.306;2022-08-24T02:07:34;2.58;;;1.88;;
56670;SDS011;42545;50.054;8.306;2022-08-24T02:10:01;3.65;;;1.70;;
56670;SDS011;42545;50.054;8.306;2022-08-24T02:12:31;1.80;;;1.60;;
56670;SDS011;42545;50.054;8.306;2022-08-24T02:14:58;2.13;;;1.80;;
56670;SDS011;42545;50.054;8.306;2022-08-24T02:17:28;2.17;;;1.45;;
56670;SDS011;42545;50.054;8.306;2022-08-24T02:19:55;3.30;;;1.90;;
56670;SDS011;42545;50.054;8.306;2022-08-24T02:22:21;2.83;;;1.80;;
56670;SDS011;42545;50.054;8.306;2022-08-24T02:24:48;3.53;;;1.75;;
56670;SDS011;42545;50.054;8.306;2022-08-24T02:27:15;1.70;;;1.60;;
56670;SDS011;42545;50.054;8.306;2022-08-24T02:29:43;2.45;;;1.60;;
56670;SDS011;42545;50.054;8.306;2022-08-24T02:32:10;2.35;;;1.48;;
56670;SDS011;42545;50.054;8.306;2022-08-24T02:34:39;1.83;;;1.50;;
56670;SDS011;42545;50.054;8.306;2022-08-24T02:37:08;1.92;;;1.70;;
56670;SDS011;42545;50.054;8.306;2022-08-24T02:39:35;2.20;;;1.70;;
56670;SDS011;42545;50.054;8.306;2022-08-24T02:42:02;1.67;;;1.50;;
56670;SDS011;42545;50.054;8.306;2022-08-24T02:44:29;4.47;;;1.70;;
56670;SDS011;42545;50.054;8.306;2022-08-24T02:46:56;2.67;;;1.67;;
56670;SDS011;42545;50.054;8.306;2022-08-24T02:49:23;3.42;;;1.70;;
56670;SDS011;42545;50.054;8.306;2022-08-24T02:51:51;1.80;;;1.55;;
56670;SDS011;42545;50.054;8.306;2022-08-24T02:54:18;2.55;;;1.65;;
56670;SDS011;42545;50.054;8.306;2022-08-24T02:56:45;2.10;;;1.50;;
56670;SDS011;42545;50.054;8.306;2022-08-24T02:59:12;2.47;;;1.45;;
56670;SDS011;42545;50.054;8.306;2022-08-24T03:01:40;2.47;;;1.60;;
56670;SDS011;42545;50.054;8.306;2022-08-24T03:04:07;1.55;;;1.42;;
56670;SDS011;42545;50.054;8.306;2022-08-24T03:06:34;1.58;;;1.40;;
56670;SDS011;42545;50.054;8.306;2022-08-24T03:09:04;2.38;;;1.40;;
56670;SDS011;42545;50.054;8.306;2022-08-24T03:11:31;1.63;;;1.42;;
56670;SDS011;42545;50.054;8.306;2022-08-24T03:13:58;1.50;;;1.38;;
56670;SDS011;42545;50.054;8.306;2022-08-24T03:16:25;2.30;;;1.50;;
56670;SDS011;42545;50.054;8.306;2022-08-24T03:18:53;2.63;;;1.35;;
56670;SDS011;42545;50.054;8.306;2022-08-24T03:21:19;1.60;;;1.40;;
56670;SDS011;42545;50.054;8.306;2022-08-24T03:23:46;1.92;;;1.30;;
56670;SDS011;42545;50.054;8.306;2022-08-24T03:26:14;1.73;;;1.30;;
56670;SDS011;42545;50.054;8.306;2022-08-24T03:28:41;1.67;;;1.50;;
56670;SDS011;42545;50.054;8.306;2022-08-24T03:31:07;1.50;;;1.20;;
56670;SDS011;42545;50.054;8.306;2022-08-24T03:33:35;3.08;;;1.50;;
56670;SDS011;42545;50.054;8.306;2022-08-24T03:36:01;1.67;;;1.30;;
56670;SDS011;42545;50.054;8.306;2022-08-24T03:38:28;2.75;;;1.50;;
56670;SDS011;42545;50.054;8.306;2022-08-24T03:40:55;2.20;;;1.40;;
56670;SDS011;42545;50.054;8.306;2022-08-24T03:43:24;1.85;;;1.33;;
56670;SDS011;42545;50.054;8.306;2022-08-24T03:46:05;2.33;;;1.40;;
56670;SDS011;42545;50.054;8.306;2022-08-24T03:48:33;1.88;;;1.30;;
56670;SDS011;42545;50.054;8.306;2022-08-24T03:51:03;1.65;;;1.30;;
56670;SDS011;42545;50.054;8.306;2022-08-24T03:53:30;2.10;;;1.48;;
56670;SDS011;42545;50.054;8.306;2022-08-24T03:55:56;1.33;;;1.15;;
56670;SDS011;42545;50.054;8.306;2022-08-24T03:58:25;1.45;;;1.30;;
56670;SDS011;42545;50.054;8.306;2022-08-24T04:00:52;2.22;;;1.50;;
56670;SDS011;42545;50.054;8.306;2022-08-24T04:03:19;1.50;;;1.23;;
56670;SDS011;42545;50.054;8.306;2022-08-24T04:05:46;2.22;;;1.40;;
56670;SDS011;42545;50.054;8.306;2022-08-24T04:08:13;1.85;;;1.52;;
56670;SDS011;42545;50.054;8.306;2022-08-24T04:10:42;2.75;;;1.50;;
56670;SDS011;42545;50.054;8.306;2022-08-24T04:13:10;1.60;;;1.30;;
56670;SDS011;42545;50.054;8.306;2022-08-24T04:15:39;2.35;;;1.55;;
56670;SDS011;42545;50.054;8.306;2022-08-24T04:20:36;2.10;;;1.58;;
56670;SDS011;42545;50.054;8.306;2022-08-24T04:23:05;1.45;;;1.20;;
56670;SDS011;42545;50.054;8.306;2022-08-24T04:25:39;1.63;;;1.23;;
56670;SDS011;42545;50.054;8.306;2022-08-24T04:28:08;1.85;;;1.50;;
56670;SDS011;42545;50.054;8.306;2022-08-24T04:30:40;1.80;;;1.50;;
56670;SDS011;42545;50.054;8.306;2022-08-24T04:33:07;1.70;;;1.40;;
56670;SDS011;42545;50.054;8.306;2022-08-24T04:35:36;2.83;;;1.38;;
56670;SDS011;42545;50.054;8.306;2022-08-24T04:38:04;1.70;;;1.20;;
56670;SDS011;42545;50.054;8.306;2022-08-24T04:40:31;2.33;;;1.40;;
56670;SDS011;42545;50.054;8.306;2022-08-24T04:42:59;2.60;;;1.50;;
56670;SDS011;42545;50.054;8.306;2022-08-24T04:45:26;2.22;;;1.60;;
56670;SDS011;42545;50.054;8.306;2022-08-24T04:47:55;2.65;;;1.30;;
56670;SDS011;42545;50.054;8.306;2022-08-24T04:50:22;2.03;;;1.45;;
56670;SDS011;42545;50.054;8.306;2022-08-24T04:52:50;3.00;;;1.63;;
56670;SDS011;42545;50.054;8.306;2022-08-24T04:55:17;2.72;;;1.60;;
56670;SDS011;42545;50.054;8.306;2022-08-24T04:57:44;1.40;;;1.30;;
56670;SDS011;42545;50.054;8.306;2022-08-24T05:00:14;2.85;;;1.50;;
56670;SDS011;42545;50.054;8.306;2022-08-24T05:02:43;1.48;;;1.38;;
56670;SDS011;42545;50.054;8.306;2022-08-24T05:05:12;1.30;;;1.20;;
56670;SDS011;42545;50.054;8.306;2022-08-24T05:07:39;1.80;;;1.45;;
56670;SDS011;42545;50.054;8.306;2022-08-24T05:10:07;1.80;;;1.40;;
56670;SDS011;42545;50.054;8.306;2022-08-24T05:12:35;2.60;;;1.50;;
56670;SDS011;42545;50.054;8.306;2022-08-24T05:15:02;1.50;;;1.40;;
56670;SDS011;42545;50.054;8.306;2022-08-24T05:17:30;2.22;;;1.40;;
56670;SDS011;42545;50.054;8.306;2022-08-24T05:19:57;1.58;;;1.40;;
56670;SDS011;42545;50.054;8.306;2022-08-24T05:22:27;1.50;;;1.40;;
56670;SDS011;42545;50.054;8.306;2022-08-24T05:24:54;1.63;;;1.38;;
56670;SDS011;42545;50.054;8.306;2022-08-24T05:27:21;2.58;;;1.48;;
56670;SDS011;42545;50.054;8.306;2022-08-24T05:29:50;1.73;;;1.30;;
56670;SDS011;42545;50.054;8.306;2022-08-24T05:32:18;1.95;;;1.30;;
56670;SDS011;42545;50.054;8.306;2022-08-24T05:34:45;1.40;;;1.30;;
56670;SDS011;42545;50.054;8.306;2022-08-24T05:37:12;1.27;;;1.17;;
56670;SDS011;42545;50.054;8.306;2022-08-24T05:39:41;1.55;;;1.15;;
56670;SDS011;42545;50.054;8.306;2022-08-24T05:42:08;2.03;;;1.30;;
56670;SDS011;42545;50.054;8.306;2022-08-24T05:44:37;1.33;;;1.23;;
56670;SDS011;42545;50.054;8.306;2022-08-24T05:47:04;1.75;;;1.40;;
56670;SDS011;42545;50.054;8.306;2022-08-24T05:49:31;2.53;;;1.40;;
56670;SDS011;42545;50.054;8.306;2022-08-24T05:51:58;2.13;;;1.50;;
56670;SDS011;42545;50.054;8.306;2022-08-24T05:54:25;1.50;;;1.20;;
56670;SDS011;42545;50.054;8.306;2022-08-24T05:56:53;1.25;;;1.15;;
56670;SDS011;42545;50.054;8.306;2022-08-24T05:59:21;2.05;;;1.50;;
56670;SDS011;42545;50.054;8.306;2022-08-24T06:01:48;2.00;;;1.67;;
56670;SDS011;42545;50.054;8.306;2022-08-24T06:04:15;2.17;;;1.80;;
56670;SDS011;42545;50.054;8.306;2022-08-24T06:06:44;1.90;;;1.40;;
56670;SDS011;42545;50.054;8.306;2022-08-24T06:09:11;2.25;;;1.40;;
56670;SDS011;42545;50.054;8.306;2022-08-24T06:11:38;1.60;;;1.30;;
56670;SDS011;42545;50.054;8.306;2022-08-24T06:14:11;1.40;;;1.30;;
56670;SDS011;42545;50.054;8.306;2022-08-24T06:16:42;2.33;;;1.60;;
56670;SDS011;42545;50.054;8.306;2022-08-24T06:19:10;2.33;;;1.20;;
56670;SDS011;42545;50.054;8.306;2022-08-24T06:21:38;1.92;;;1.33;;
56670;SDS011;42545;50.054;8.306;2022-08-24T06:24:06;2.33;;;1.58;;
56670;SDS011;42545;50.054;8.306;2022-08-24T06:26:33;2.42;;;1.60;;
56670;SDS011;42545;50.054;8.306;2022-08-24T06:29:34;2.50;;;1.60;;
56670;SDS011;42545;50.054;8.306;2022-08-24T06:32:01;3.13;;;1.20;;
56670;SDS011;42545;50.054;8.306;2022-08-24T06:34:28;1.90;;;1.70;;
56670;SDS011;42545;50.054;8.306;2022-08-24T06:36:55;4.97;;;1.60;;
56670;SDS011;42545;50.054;8.306;2022-08-24T06:39:21;1.85;;;1.33;;
56670;SDS011;42545;50.054;8.306;2022-08-24T06:41:48;2.15;;;1.45;;
56670;SDS011;42545;50.054;8.306;2022-08-24T06:44:15;2.17;;;1.50;;
56670;SDS011;42545;50.054;8.306;2022-08-24T06:46:45;2.45;;;1.50;;
56670;SDS011;42545;50.054;8.306;2022-08-24T06:49:13;1.95;;;1.70;;
56670;SDS011;42545;50.054;8.306;2022-08-24T06:51:40;2.00;;;1.67;;
56670;SDS011;42545;50.054;8.306;2022-08-24T06:54:06;5.35;;;2.10;;
56670;SDS011;42545;50.054;8.306;2022-08-24T06:56:34;2.25;;;1.60;;
56670;SDS011;42545;50.054;8.306;2022-08-24T06:59:02;2.97;;;1.80;;
56670;SDS011;42545;50.054;8.306;2022-08-24T07:01:29;5.65;;;1.90;;
56670;SDS011;42545;50.054;8.306;2022-08-24T07:03:58;2.10;;;1.70;;
56670;SDS011;42545;50.054;8.306;2022-08-24T07:06:25;4.20;;;1.80;;
56670;SDS011;42545;50.054;8.306;2022-08-24T07:08:52;2.83;;;1.85;;
56670;SDS011;42545;50.054;8.306;2022-08-24T07:11:20;2.90;;;1.55;;
56670;SDS011;42545;50.054;8.306;2022-08-24T07:13:49;2.80;;;1.70;;
56670;SDS011;42545;50.054;8.306;2022-08-24T07:16:17;3.15;;;1.50;;
56670;SDS011;42545;50.054;8.306;2022-08-24T07:18:45;2.47;;;1.80;;
56670;SDS011;42545;50.054;8.306;2022-08-24T07:21:14;2.97;;;1.55;;
56670;SDS011;42545;50.054;8.306;2022-08-24T07:23:43;2.67;;;2.00;;
56670;SDS011;42545;50.054;8.306;2022-08-24T07:26:11;3.20;;;1.50;;
56670;SDS011;42545;50.054;8.306;2022-08-24T07:31:07;1.80;;;1.40;;
56670;SDS011;42545;50.054;8.306;2022-08-24T07:33:35;3.90;;;2.17;;
56670;SDS011;42545;50.054;8.306;2022-08-24T07:36:02;2.72;;;1.70;;
56670;SDS011;42545;50.054;8.306;2022-08-24T07:38:30;2.15;;;1.60;;
56670;SDS011;42545;50.054;8.306;2022-08-24T07:40:58;3.55;;;1.83;;
56670;SDS011;42545;50.054;8.306;2022-08-24T07:43:26;2.35;;;1.60;;
56670;SDS011;42545;50.054;8.306;2022-08-24T07:45:54;4.57;;;1.80;;
56670;SDS011;42545;50.054;8.306;2022-08-24T07:48:21;3.40;;;1.80;;
56670;SDS011;42545;50.054;8.306;2022-08-24T07:50:48;2.28;;;1.70;;
56670;SDS011;42545;50.054;8.306;2022-08-24T07:53:14;2.65;;;1.55;;
56670;SDS011;42545;50.054;8.306;2022-08-24T07:55:53;5.88;;;1.70;;
56670;SDS011;42545;50.054;8.306;2022-08-24T07:58:20;2.17;;;1.70;;
56670;SDS011;42545;50.054;8.306;2022-08-24T08:00:48;5.88;;;2.63;;
56670;SDS011;42545;50.054;8.306;2022-08-24T08:03:16;4.53;;;2.10;;
56670;SDS011;42545;50.054;8.306;2022-08-24T08:05:43;2.75;;;1.63;;
56670;SDS011;42545;50.054;8.306;2022-08-24T08:08:11;4.55;;;1.80;;
56670;SDS011;42545;50.054;8.306;2022-08-24T08:10:39;3.00;;;1.80;;
56670;SDS011;42545;50.054;8.306;2022-08-24T08:13:12;7.45;;;1.80;;
56670;SDS011;42545;50.054;8.306;2022-08-24T08:15:46;3.72;;;1.83;;
56670;SDS011;42545;50.054;8.306;2022-08-24T08:18:13;3.63;;;1.80;;
56670;SDS011;42545;50.054;8.306;2022-08-24T08:20:41;3.33;;;1.83;;
56670;SDS011;42545;50.054;8.306;2022-08-24T08:23:09;4.32;;;1.52;;
56670;SDS011;42545;50.054;8.306;2022-08-24T08:25:54;3.03;;;1.85;;
56670;SDS011;42545;50.054;8.306;2022-08-24T08:28:29;6.72;;;2.13;;
56670;SDS011;42545;50.054;8.306;2022-08-24T08:31:00;3.75;;;1.80;;
56670;SDS011;42545;50.054;8.306;2022-08-24T08:33:27;2.40;;;1.60;;
56670;SDS011;42545;50.054;8.306;2022-08-24T08:35:56;2.85;;;1.63;;
56670;SDS011;42545;50.054;8.306;2022-08-24T08:38:28;3.35;;;1.98;;
56670;SDS011;42545;50.054;8.306;2022-08-24T08:40:58;3.53;;;1.92;;
56670;SDS011;42545;50.054;8.306;2022-08-24T08:43:42;2.60;;;1.80;;
56670;SDS011;42545;50.054;8.306;2022-08-24T08:46:15;3.47;;;2.08;;
56670;SDS011;42545;50.054;8.306;2022-08-24T08:49:02;6.15;;;2.05;;
56670;SDS011;42545;50.054;8.306;2022-08-24T08:51:48;3.00;;;1.88;;
56670;SDS011;42545;50.054;8.306;2022-08-24T08:54:40;3.15;;;1.85;;
56670;SDS011;42545;50.054;8.306;2022-08-24T08:57:21;3.22;;;1.55;;
56670;SDS011;42545;50.054;8.306;2022-08-24T09:00:10;4.35;;;1.80;;
56670;SDS011;42545;50.054;8.306;2022-08-24T09:02:54;5.45;;;2.20;;
56670;SDS011;42545;50.054;8.306;2022-08-24T09:06:08;6.30;;;1.95;;
56670;SDS011;42545;50.054;8.306;2022-08-24T09:08:53;4.32;;;1.83;;
56670;SDS011;42545;50.054;8.306;2022-08-24T09:11:35;2.58;;;1.70;;
56670;SDS011;42545;50.054;8.306;2022-08-24T09:14:30;2.72;;;1.95;;
56670;SDS011;42545;50.054;8.306;2022-08-24T09:17:20;2.63;;;1.80;;
56670;SDS011;42545;50.054;8.306;2022-08-24T09:20:08;2.45;;;2.00;;
56670;SDS011;42545;50.054;8.306;2022-08-24T09:22:45;4.35;;;2.00;;
56670;SDS011;42545;50.054;8.306;2022-08-24T09:25:18;4.00;;;2.10;;
56670;SDS011;42545;50.054;8.306;2022-08-24T09:30:57;4.00;;;2.00;;
56670;SDS011;42545;50.054;8.306;2022-08-24T09:33:36;3.42;;;2.10;;
56670;SDS011;42545;50.054;8.306;2022-08-24T09:36:10;6.65;;;2.30;;
56670;SDS011;42545;50.054;8.306;2022-08-24T09:38:54;2.42;;;1.80;;
56670;SDS011;42545;50.054;8.306;2022-08-24T09:41:37;3.95;;;2.00;;
56670;SDS011;42545;50.054;8.306;2022-08-24T09:44:23;2.28;;;1.70;;
56670;SDS011;42545;50.054;8.306;2022-08-24T09:47:21;2.65;;;1.70;;
56670;SDS011;42545;50.054;8.306;2022-08-24T09:50:23;3.20;;;1.85;;
56670;SDS011;42545;50.054;8.306;2022-08-24T09:53:20;3.85;;;2.13;;
56670;SDS011;42545;50.054;8.306;2022-08-24T09:56:11;3.45;;;1.80;;
56670;SDS011;42545;50.054;8.306;2022-08-24T09:58:49;3.28;;;1.90;;
56670;SDS011;42545;50.054;8.306;2022-08-24T10:01:29;3.03;;;1.80;;
56670;SDS011;42545;50.054;8.306;2022-08-24T10:04:07;2.28;;;1.60;;
56670;SDS011;42545;50.054;8.306;2022-08-24T10:06:47;4.63;;;2.03;;
56670;SDS011;42545;50.054;8.306;2022-08-24T10:09:42;4.00;;;2.00;;
56670;SDS011;42545;50.054;8.306;2022-08-24T10:12:27;6.35;;;2.15;;
56670;SDS011;42545;50.054;8.306;2022-08-24T10:15:06;4.30;;;1.88;;
56670;SDS011;42545;50.054;8.306;2022-08-24T10:17:39;3.28;;;1.85;;
56670;SDS011;42545;50.054;8.306;2022-08-24T10:20:27;2.55;;;1.85;;
56670;SDS011;42545;50.054;8.306;2022-08-24T10:23:16;2.75;;;1.95;;
56670;SDS011;42545;50.054;8.306;2022-08-24T10:25:58;3.03;;;1.85;;
56670;SDS011;42545;50.054;8.306;2022-08-24T10:28:38;5.00;;;2.15;;
56670;SDS011;42545;50.054;8.306;2022-08-24T10:31:22;3.65;;;1.70;;
56670;SDS011;42545;50.054;8.306;2022-08-24T10:33:58;3.10;;;1.83;;
56670;SDS011;42545;50.054;8.306;2022-08-24T10:36:42;3.72;;;2.10;;
56670;SDS011;42545;50.054;8.306;2022-08-24T10:39:39;7.35;;;2.40;;
56670;SDS011;42545;50.054;8.306;2022-08-24T10:42:25;2.58;;;1.73;;
56670;SDS011;42545;50.054;8.306;2022-08-24T10:45:28;4.28;;;2.13;;
56670;SDS011;42545;50.054;8.306;2022-08-24T10:48:29;2.70;;;1.90;;
56670;SDS011;42545;50.054;8.306;2022-08-24T10:51:22;3.72;;;1.90;;
56670;SDS011;42545;50.054;8.306;2022-08-24T10:54:01;2.45;;;2.00;;
56670;SDS011;42545;50.054;8.306;2022-08-24T10:59:14;2.95;;;1.88;;
56670;SDS011;42545;50.054;8.306;2022-08-24T11:02:02;3.67;;;1.92;;
56670;SDS011;42545;50.054;8.306;2022-08-24T11:04:32;2.60;;;1.73;;
56670;SDS011;42545;50.054;8.306;2022-08-24T11:07:03;3.90;;;2.30;;
56670;SDS011;42545;50.054;8.306;2022-08-24T11:09:42;3.80;;;2.00;;
56670;SDS011;42545;50.054;8.306;2022-08-24T11:12:17;3.05;;;2.00;;
56670;SDS011;42545;50.054;8.306;2022-08-24T11:14:49;4.88;;;2.13;;
56670;SDS011;42545;50.054;8.306;2022-08-24T11:17:21;3.28;;;1.98;;
56670;SDS011;42545;50.054;8.306;2022-08-24T11:19:54;3.50;;;1.98;;
56670;SDS011;42545;50.054;8.306;2022-08-24T11:22:30;2.20;;;1.70;;
56670;SDS011;42545;50.054;8.306;2022-08-24T11:25:06;2.83;;;1.90;;
56670;SDS011;42545;50.054;8.306;2022-08-24T11:27:44;2.25;;;1.85;;
56670;SDS011;42545;50.054;8.306;2022-08-24T11:30:22;2.80;;;2.03;;
56670;SDS011;42545;50.054;8.306;2022-08-24T11:35:34;5.80;;;2.30;;
56670;SDS011;42545;50.054;8.306;2022-08-24T11:38:05;2.90;;;2.00;;
56670;SDS011;42545;50.054;8.306;2022-08-24T11:40:35;5.03;;;2.10;;
56670;SDS011;42545;50.054;8.306;2022-08-24T11:43:08;1.83;;;1.67;;
56670;SDS011;42545;50.054;8.306;2022-08-24T11:45:47;2.45;;;1.98;;
56670;SDS011;42545;50.054;8.306;2022-08-24T11:48:28;3.10;;;1.98;;
56670;SDS011;42545;50.054;8.306;2022-08-24T11:51:06;2.70;;;1.90;;
56670;SDS011;42545;50.054;8.306;2022-08-24T11:53:45;4.63;;;2.10;;
56670;SDS011;42545;50.054;8.306;2022-08-24T11:56:23;3.33;;;1.80;;
56670;SDS011;42545;50.054;8.306;2022-08-24T11:58:57;3.85;;;1.98;;
56670;SDS011;42545;50.054;8.306;2022-08-24T12:01:36;5.50;;;2.35;;
56670;SDS011;42545;50.054;8.306;2022-08-24T12:04:14;3.85;;;2.25;;
56670;SDS011;42545;50.054;8.306;2022-08-24T12:06:53;4.80;;;2.55;;
56670;SDS011;42545;50.054;8.306;2022-08-24T12:09:31;4.38;;;2.25;;
56670;SDS011;42545;50.054;8.306;2022-08-24T12:12:12;3.92;;;2.20;;
56670;SDS011;42545;50.054;8.306;2022-08-24T12:14:49;5.25;;;2.28;;
56670;SDS011;42545;50.054;8.306;2022-08-24T12:17:27;3.63;;;2.22;;
56670;SDS011;42545;50.054;8.306;2022-08-24T12:20:04;4.00;;;2.47;;
56670;SDS011;42545;50.054;8.306;2022-08-24T12:22:39;5.75;;;2.00;;
56670;SDS011;42545;50.054;8.306;2022-08-24T12:25:07;8.07;;;2.65;;
56670;SDS011;42545;50.054;8.306;2022-08-24T12:27:56;4.78;;;2.33;;
56670;SDS011;42545;50.054;8.306;2022-08-24T12:30:26;3.17;;;2.00;;
56670;SDS011;42545;50.054;8.306;2022-08-24T12:32:54;5.10;;;2.40;;
56670;SDS011;42545;50.054;8.306;2022-08-24T12:35:26;4.68;;;2.30;;
56670;SDS011;42545;50.054;8.306;2022-08-24T12:37:57;4.50;;;2.10;;
56670;SDS011;42545;50.054;8.306;2022-08-24T12:40:29;3.80;;;1.90;;
56670;SDS011;42545;50.054;8.306;2022-08-24T12:43:00;2.88;;;2.10;;
56670;SDS011;42545;50.054;8.306;2022-08-24T12:45:34;3.42;;;2.30;;
56670;SDS011;42545;50.054;8.306;2022-08-24T12:48:06;4.93;;;2.00;;
56670;SDS011;42545;50.054;8.306;2022-08-24T12:50:40;2.50;;;1.92;;
56670;SDS011;42545;50.054;8.306;2022-08-24T12:53:38;2.40;;;1.88;;
56670;SDS011;42545;50.054;8.306;2022-08-24T12:56:21;2.55;;;1.80;;
56670;SDS011;42545;50.054;8.306;2022-08-24T12:59:05;3.33;;;2.00;;
56670;SDS011;42545;50.054;8.306;2022-08-24T13:01:43;4.68;;;2.22;;
56670;SDS011;42545;50.054;8.306;2022-08-24T13:04:14;3.08;;;2.00;;
56670;SDS011;42545;50.054;8.306;2022-08-24T13:06:48;4.82;;;2.13;;
56670;SDS011;42545;50.054;8.306;2022-08-24T13:09:26;3.63;;;2.40;;
56670;SDS011;42545;50.054;8.306;2022-08-24T13:11:58;3.50;;;2.45;;
56670;SDS011;42545;50.054;8.306;2022-08-24T13:14:48;3.45;;;2.80;;
56670;SDS011;42545;50.054;8.306;2022-08-24T13:17:19;3.03;;;2.20;;
56670;SDS011;42545;50.054;8.306;2022-08-24T13:20:17;3.95;;;2.30;;
56670;SDS011;42545;50.054;8.306;2022-08-24T13:22:47;3.78;;;2.30;;
56670;SDS011;42545;50.054;8.306;2022-08-24T13:25:36;2.63;;;2.25;;
56670;SDS011;42545;50.054;8.306;2022-08-24T13:28:26;3.83;;;2.28;;
56670;SDS011;42545;50.054;8.306;2022-08-24T13:31:02;4.93;;;2.42;;
56670;SDS011;42545;50.054;8.306;2022-08-24T13:33:43;3.75;;;2.40;;
56670;SDS011;42545;50.054;8.306;2022-08-24T13:36:37;2.78;;;1.92;;
56670;SDS011;42545;50.054;8.306;2022-08-24T13:39:19;2.78;;;2.13;;
56670;SDS011;42545;50.054;8.306;2022-08-24T13:42:07;4.82;;;2.63;;
56670;SDS011;42545;50.054;8.306;2022-08-24T13:44:57;3.78;;;2.28;;
56670;SDS011;42545;50.054;8.306;2022-08-24T13:47:49;5.47;;;2.55;;
56670;SDS011;42545;50.054;8.306;2022-08-24T13:50:29;3.63;;;2.30;;
56670;SDS011;42545;50.054;8.306;2022-08-24T13:53:12;2.33;;;1.90;;
56670;SDS011;42545;50.054;8.306;2022-08-24T13:58:54;4.55;;;2.35;;
56670;SDS011;42545;50.054;8.306;2022-08-24T14:01:33;3.08;;;2.17;;
56670;SDS011;42545;50.054;8.306;2022-08-24T14:04:15;2.92;;;1.90;;
56670;SDS011;42545;50.054;8.306;2022-08-24T14:07:07;3.60;;;2.30;;
56670;SDS011;42545;50.054;8.306;2022-08-24T14:09:40;4.30;;;2.17;;
56670;SDS011;42545;50.054;8.306;2022-08-24T14:12:32;4.18;;;2.08;;
56670;SDS011;42545;50.054;8.306;2022-08-24T14:15:24;3.65;;;1.92;;
56670;SDS011;42545;50.054;8.306;2022-08-24T14:18:07;3.40;;;2.15;;
56670;SDS011;42545;50.054;8.306;2022-08-24T14:20:41;4.05;;;2.05;;
56670;SDS011;42545;50.054;8.306;2022-08-24T14:23:43;4.32;;;2.08;;
56670;SDS011;42545;50.054;8.306;2022-08-24T14:29:29;2.85;;;1.60;;
56670;SDS011;42545;50.054;8.306;2022-08-24T14:32:28;2.63;;;2.15;;
56670;SDS011;42545;50.054;8.306;2022-08-24T14:35:00;3.97;;;1.90;;
56670;SDS011;42545;50.054;8.306;2022-08-24T14:37:46;3.40;;;2.28;;
56670;SDS011;42545;50.054;8.306;2022-08-24T14:40:25;4.25;;;2.28;;
56670;SDS011;42545;50.054;8.306;2022-08-24T14:42:58;3.85;;;2.22;;
56670;SDS011;42545;50.054;8.306;2022-08-24T14:45:33;3.47;;;2.15;;
56670;SDS011;42545;50.054;8.306;2022-08-24T14:48:09;2.95;;;2.17;;
56670;SDS011;42545;50.054;8.306;2022-08-24T14:50:47;4.35;;;2.60;;
56670;SDS011;42545;50.054;8.306;2022-08-24T14:53:25;6.45;;;2.55;;
56670;SDS011;42545;50.054;8.306;2022-08-24T14:56:11;3.00;;;2.30;;
56670;SDS011;42545;50.054;8.306;2022-08-24T14:58:52;2.63;;;2.25;;
56670;SDS011;42545;50.054;8.306;2022-08-24T15:01:38;5.88;;;5.38;;
56670;SDS011;42545;50.054;8.306;2022-08-24T15:04:20;9.63;;;7.88;;
56670;SDS011;42545;50.054;8.306;2022-08-24T15:06:55;6.72;;;4.65;;
56670;SDS011;42545;50.054;8.306;2022-08-24T15:09:33;5.47;;;3.10;;
56670;SDS011;42545;50.054;8.306;2022-08-24T15:12:11;4.10;;;2.45;;
56670;SDS011;42545;50.054;8.306;2022-08-24T15:14:50;4.25;;;2.40;;
56670;SDS011;42545;50.054;8.306;2022-08-24T15:17:20;3.28;;;2.33;;
56670;SDS011;42545;50.054;8.306;2022-08-24T15:19:57;4.18;;;2.45;;
56670;SDS011;42545;50.054;8.306;2022-08-24T15:22:36;3.25;;;2.20;;
56670;SDS011;42545;50.054;8.306;2022-08-24T15:25:14;2.92;;;2.20;;
56670;SDS011;42545;50.054;8.306;2022-08-24T15:27:52;2.58;;;2.13;;
56670;SDS011;42545;50.054;8.306;2022-08-24T15:30:22;2.42;;;1.70;;
56670;SDS011;42545;50.054;8.306;2022-08-24T15:32:53;2.53;;;1.80;;
56670;SDS011;42545;50.054;8.306;2022-08-24T15:35:30;2.00;;;1.80;;
56670;SDS011;42545;50.054;8.306;2022-08-24T15:41:01;5.45;;;2.70;;
56670;SDS011;42545;50.054;8.306;2022-08-24T15:43:37;4.35;;;2.20;;
56670;SDS011;42545;50.054;8.306;2022-08-24T15:46:09;3.25;;;1.85;;
56670;SDS011;42545;50.054;8.306;2022-08-24T15:48:36;2.72;;;1.80;;